Time;durP1;ratioP1;P1;durP2;ratioP2;P2;SDS_P1;SDS_P2;PMS_P1;PMS_P2;Temp;Humidity;BMP_temperature;BMP_pressure;BME280_temperature;BME280_humidity;BME280_pressure;Samples;Min_cycle;Max_cycle;Signal;HPM_P1;HPM_P2
2021/10/03 00:01:22;;;;;;;7.87;3.53;;;17.10;99.90;;;;;;5072248;28;20475;-85
2021/10/03 00:03:53;;;;;;;4.53;4.13;;;17.10;99.90;;;;;;5080404;28;20434;-84
2021/10/03 00:06:22;;;;;;;3.80;3.40;;;17.20;99.90;;;;;;5063539;28;20400;-85
2021/10/03 00:08:52;;;;;;;3.70;2.97;;;17.30;99.90;;;;;;5064828;28;20476;-85
2021/10/03 00:11:20;;;;;;;5.00;3.50;;;17.40;99.90;;;;;;5075005;28;20448;-85
2021/10/03 00:13:47;;;;;;;6.00;3.53;;;17.40;99.90;;;;;;5072066;28;20903;-84
2021/10/03 00:16:15;;;;;;;3.43;3.13;;;17.60;99.90;;;;;;5071820;28;20546;-84
2021/10/03 00:18:44;;;;;;;4.03;3.37;;;17.70;99.90;;;;;;5067183;28;20565;-85
2021/10/03 00:21:11;;;;;;;3.10;2.77;;;17.70;99.90;;;;;;5067260;28;20437;-84
2021/10/03 00:23:39;;;;;;;5.73;3.43;;;17.80;99.90;;;;;;5077577;28;20453;-84
2021/10/03 00:26:07;;;;;;;3.40;3.10;;;17.80;99.90;;;;;;5073963;28;20446;-85
2021/10/03 00:28:34;;;;;;;3.60;3.27;;;17.90;99.90;;;;;;5079258;28;20464;-84
2021/10/03 00:31:02;;;;;;;4.37;3.43;;;18.00;99.90;;;;;;5067587;28;20556;-83
2021/10/03 00:33:29;;;;;;;3.50;2.43;;;18.10;99.90;;;;;;5063858;28;20453;-84
2021/10/03 00:35:57;;;;;;;5.23;3.47;;;18.10;99.90;;;;;;5065155;28;20517;-83
2021/10/03 00:38:24;;;;;;;4.43;3.33;;;18.20;99.90;;;;;;5076108;28;20477;-83
2021/10/03 00:40:52;;;;;;;6.80;4.10;;;18.30;99.90;;;;;;5076368;28;20497;-83
2021/10/03 00:43:19;;;;;;;3.70;3.40;;;18.40;99.90;;;;;;5076333;28;20429;-84
2021/10/03 00:45:46;;;;;;;4.10;2.90;;;18.50;99.90;;;;;;5076376;28;20446;-83
2021/10/03 00:48:14;;;;;;;4.70;3.13;;;18.50;99.90;;;;;;5076394;28;20470;-84
2021/10/03 00:50:44;;;;;;;4.73;3.30;;;18.60;99.90;;;;;;5081238;28;20500;-84
2021/10/03 00:53:14;;;;;;;4.57;3.50;;;18.60;99.90;;;;;;5067786;28;20457;-86
2021/10/03 00:55:44;;;;;;;4.50;3.70;;;18.60;99.90;;;;;;5084952;28;20497;-85
2021/10/03 00:58:12;;;;;;;4.40;3.10;;;18.60;99.90;;;;;;5073813;28;20487;-85
2021/10/03 01:00:42;;;;;;;5.43;3.30;;;18.60;99.90;;;;;;5066248;28;20443;-84
2021/10/03 01:03:10;;;;;;;4.60;3.80;;;18.70;99.90;;;;;;5065077;28;20438;-85
2021/10/03 01:05:38;;;;;;;4.20;3.60;;;18.70;99.90;;;;;;5069962;28;20943;-85
2021/10/03 01:08:06;;;;;;;4.23;3.00;;;18.70;99.90;;;;;;5076271;28;20626;-85
2021/10/03 01:10:34;;;;;;;4.80;3.50;;;18.70;99.90;;;;;;5072324;28;20554;-84
2021/10/03 01:13:05;;;;;;;5.77;3.10;;;18.80;99.90;;;;;;5073788;28;20450;-85
2021/10/03 01:15:35;;;;;;;5.20;3.20;;;18.80;99.90;;;;;;5069365;28;20532;-85
2021/10/03 01:18:02;;;;;;;4.27;3.20;;;18.80;99.90;;;;;;5081450;28;20461;-84
2021/10/03 01:20:30;;;;;;;3.40;2.77;;;18.80;99.90;;;;;;5080114;28;20503;-83
2021/10/03 01:23:03;;;;;;;4.87;3.63;;;18.90;99.90;;;;;;5073378;28;20438;-83
2021/10/03 01:25:31;;;;;;;4.00;2.83;;;18.90;99.90;;;;;;5080413;28;20509;-85
2021/10/03 01:27:58;;;;;;;3.30;2.70;;;18.90;99.90;;;;;;5061649;28;20478;-84
2021/10/03 01:30:26;;;;;;;5.40;3.40;;;19.00;99.90;;;;;;5083195;28;20473;-85
2021/10/03 01:32:53;;;;;;;4.10;2.90;;;19.00;99.90;;;;;;5083450;28;20481;-86
2021/10/03 01:35:20;;;;;;;4.50;3.23;;;19.00;99.90;;;;;;5084276;28;20438;-84
2021/10/03 01:37:49;;;;;;;3.77;3.37;;;19.10;99.90;;;;;;5078432;28;20461;-83
2021/10/03 01:40:20;;;;;;;4.50;3.10;;;19.10;99.90;;;;;;5078708;28;20460;-85
2021/10/03 01:42:48;;;;;;;4.63;2.50;;;19.10;99.90;;;;;;5072659;28;20450;-85
2021/10/03 01:45:17;;;;;;;5.80;3.97;;;19.10;99.90;;;;;;5086545;28;20548;-85
2021/10/03 01:48:15;;;;;;;4.43;3.23;;;19.10;99.90;;;;;;5079356;28;20484;-84
2021/10/03 01:50:45;;;;;;;4.13;3.20;;;19.20;99.90;;;;;;5009759;28;21146;-86
2021/10/03 01:53:14;;;;;;;8.23;3.17;;;19.20;99.90;;;;;;5052911;28;20457;-85
2021/10/03 01:55:44;;;;;;;3.83;3.30;;;19.20;99.90;;;;;;5070773;28;20442;-84
2021/10/03 01:58:13;;;;;;;3.20;2.53;;;19.20;99.90;;;;;;5074798;28;20532;-84
2021/10/03 02:00:43;;;;;;;3.70;2.70;;;19.20;99.90;;;;;;5067958;28;20457;-85
2021/10/03 02:03:11;;;;;;;3.20;2.60;;;19.30;99.90;;;;;;5084575;28;20428;-84
2021/10/03 02:05:40;;;;;;;3.87;3.10;;;19.20;99.90;;;;;;5067695;28;20432;-84
2021/10/03 02:08:08;;;;;;;4.00;3.60;;;19.20;99.90;;;;;;5071461;28;20456;-84
2021/10/03 02:10:37;;;;;;;5.73;3.07;;;19.20;99.90;;;;;;5071075;28;20490;-85
2021/10/03 02:13:07;;;;;;;4.57;3.20;;;19.20;99.90;;;;;;5079334;28;20505;-84
2021/10/03 02:15:35;;;;;;;6.10;3.13;;;19.20;99.90;;;;;;5071601;28;20438;-85
2021/10/03 02:18:06;;;;;;;5.30;3.10;;;19.20;99.90;;;;;;5070451;28;20473;-84
2021/10/03 02:20:34;;;;;;;3.20;2.90;;;19.20;99.90;;;;;;5077042;28;20434;-84
2021/10/03 02:23:01;;;;;;;4.37;2.93;;;19.20;99.90;;;;;;5070923;28;20454;-84
2021/10/03 02:25:29;;;;;;;4.60;2.87;;;19.20;99.90;;;;;;5077668;28;20432;-85
2021/10/03 02:27:57;;;;;;;3.40;3.10;;;19.20;99.90;;;;;;5084605;28;20453;-84
2021/10/03 02:30:25;;;;;;;3.17;2.80;;;19.20;99.90;;;;;;5083367;28;20478;-84
2021/10/03 02:32:53;;;;;;;3.73;3.43;;;19.10;99.90;;;;;;5078592;28;20456;-84
2021/10/03 02:35:20;;;;;;;3.80;2.93;;;19.10;99.90;;;;;;5081299;28;20529;-84
2021/10/03 02:37:47;;;;;;;3.50;2.97;;;19.10;99.90;;;;;;5074538;28;20471;-84
2021/10/03 02:40:17;;;;;;;3.53;3.20;;;19.10;99.90;;;;;;5071764;28;20508;-84
2021/10/03 02:42:45;;;;;;;7.90;3.90;;;19.10;99.90;;;;;;5077275;28;20447;-84
2021/10/03 02:45:12;;;;;;;3.77;2.70;;;19.00;99.90;;;;;;5069116;28;20437;-84
2021/10/03 02:47:41;;;;;;;9.00;3.43;;;19.10;99.90;;;;;;5076789;28;20471;-85
2021/10/03 02:50:09;;;;;;;4.90;2.77;;;19.00;99.90;;;;;;5075130;28;20491;-84
2021/10/03 02:52:36;;;;;;;5.10;3.80;;;19.00;99.90;;;;;;5080445;28;20453;-85
2021/10/03 02:55:04;;;;;;;4.80;3.20;;;19.00;99.90;;;;;;5080109;28;20530;-84
2021/10/03 02:57:31;;;;;;;6.40;3.40;;;19.00;99.90;;;;;;5071529;28;20473;-85
2021/10/03 02:59:58;;;;;;;3.53;3.23;;;19.10;99.90;;;;;;5083650;28;20452;-85
2021/10/03 03:02:25;;;;;;;4.83;3.87;;;19.00;99.90;;;;;;5082207;28;20458;-84
2021/10/03 03:04:54;;;;;;;5.20;3.23;;;19.10;99.90;;;;;;5088540;28;20456;-84
2021/10/03 03:07:21;;;;;;;6.10;3.23;;;19.10;99.90;;;;;;5089051;28;20453;-84
2021/10/03 03:09:48;;;;;;;3.50;2.70;;;19.10;99.90;;;;;;5079239;28;20434;-83
2021/10/03 03:12:15;;;;;;;3.73;2.73;;;19.10;99.90;;;;;;5084404;28;20436;-83
2021/10/03 03:14:42;;;;;;;7.60;3.20;;;19.10;99.90;;;;;;5083483;28;20521;-85
2021/10/03 03:17:16;;;;;;;5.57;3.53;;;19.10;99.90;;;;;;5073639;28;20484;-84
2021/10/03 03:19:44;;;;;;;4.30;2.80;;;19.00;99.90;;;;;;5079012;28;20449;-84
2021/10/03 03:22:14;;;;;;;4.67;2.80;;;19.10;99.90;;;;;;5079639;28;20454;-84
2021/10/03 03:24:41;;;;;;;3.67;2.80;;;19.00;99.90;;;;;;5099443;28;20488;-84
2021/10/03 03:27:09;;;;;;;3.37;2.70;;;19.00;99.90;;;;;;5098289;28;21864;-84
2021/10/03 03:29:36;;;;;;;5.53;3.10;;;19.00;99.90;;;;;;5086590;28;20430;-82
2021/10/03 03:32:04;;;;;;;3.37;3.07;;;19.00;99.90;;;;;;5081966;28;20434;-84
2021/10/03 03:34:31;;;;;;;3.43;2.80;;;19.10;99.90;;;;;;5082275;28;20430;-83
2021/10/03 03:36:59;;;;;;;3.30;2.73;;;19.10;99.90;;;;;;5067108;28;20926;-85
2021/10/03 03:39:27;;;;;;;3.23;2.63;;;19.10;99.90;;;;;;5068492;28;20462;-85
2021/10/03 03:41:54;;;;;;;3.93;2.93;;;19.10;99.90;;;;;;5069939;28;20457;-85
2021/10/03 03:44:22;;;;;;;3.43;3.13;;;19.10;99.90;;;;;;5071978;28;20446;-86
2021/10/03 03:46:49;;;;;;;3.90;2.63;;;19.20;99.90;;;;;;5062037;28;20464;-86
2021/10/03 03:49:16;;;;;;;3.10;2.67;;;19.10;99.90;;;;;;5054594;28;20820;-84
2021/10/03 03:51:43;;;;;;;2.70;2.50;;;19.10;99.90;;;;;;5066438;28;20486;-85
2021/10/03 03:54:10;;;;;;;3.20;2.90;;;19.10;99.90;;;;;;5072701;28;20880;-85
2021/10/03 03:56:39;;;;;;;3.50;3.00;;;19.10;99.90;;;;;;5072503;28;20446;-85
2021/10/03 03:59:06;;;;;;;4.10;2.90;;;19.00;99.90;;;;;;5059624;28;20481;-87
2021/10/03 04:01:33;;;;;;;3.47;3.13;;;19.00;99.90;;;;;;5065583;28;20437;-84
2021/10/03 04:04:00;;;;;;;4.53;3.40;;;19.00;99.90;;;;;;5068332;28;20456;-85
2021/10/03 04:06:27;;;;;;;4.43;3.00;;;19.00;99.90;;;;;;5071910;28;20939;-84
2021/10/03 04:08:54;;;;;;;5.47;3.50;;;19.00;99.90;;;;;;5064024;28;20551;-84
2021/10/03 04:11:22;;;;;;;3.60;2.83;;;19.10;99.90;;;;;;5068802;28;21069;-85
2021/10/03 04:13:50;;;;;;;5.10;3.00;;;19.10;99.90;;;;;;5075724;28;20847;-85
2021/10/03 04:16:18;;;;;;;4.20;3.00;;;19.20;99.90;;;;;;5067110;28;20453;-85
2021/10/03 04:18:45;;;;;;;4.07;3.10;;;19.10;99.90;;;;;;5064217;28;20481;-84
2021/10/03 04:21:12;;;;;;;4.53;2.90;;;19.10;99.90;;;;;;5071044;28;20484;-83
2021/10/03 04:23:40;;;;;;;3.20;2.93;;;19.10;99.90;;;;;;5055045;28;20451;-84
2021/10/03 04:26:07;;;;;;;3.00;2.70;;;19.10;99.90;;;;;;5070027;28;20437;-85
2021/10/03 04:28:34;;;;;;;3.27;2.37;;;19.10;99.90;;;;;;5074511;28;20468;-85
2021/10/03 04:31:12;;;;;;;3.50;2.63;;;19.20;99.90;;;;;;5070246;28;20478;-83
2021/10/03 04:33:43;;;;;;;4.03;2.90;;;19.30;99.90;;;;;;5066566;28;20442;-83
2021/10/03 04:36:10;;;;;;;2.80;2.60;;;19.20;99.90;;;;;;5069018;28;20442;-81
2021/10/03 04:38:37;;;;;;;5.83;3.30;;;19.20;99.90;;;;;;5062242;28;20975;-85
2021/10/03 04:41:05;;;;;;;3.37;2.70;;;19.30;99.90;;;;;;5062188;28;21137;-84
2021/10/03 04:43:33;;;;;;;3.77;3.10;;;19.30;99.90;;;;;;5070010;28;20464;-84
2021/10/03 04:46:00;;;;;;;3.87;2.50;;;19.40;99.90;;;;;;5061198;28;20489;-84
2021/10/03 04:48:29;;;;;;;2.73;2.33;;;19.40;99.90;;;;;;5064356;28;20561;-84
2021/10/03 04:50:56;;;;;;;3.10;2.43;;;19.50;99.90;;;;;;5074393;28;20473;-83
2021/10/03 04:53:24;;;;;;;3.10;2.33;;;19.50;99.90;;;;;;5068004;28;20440;-84
2021/10/03 04:55:52;;;;;;;4.00;2.83;;;19.50;99.90;;;;;;5082345;28;20438;-83
2021/10/03 04:58:22;;;;;;;3.10;2.40;;;19.50;99.90;;;;;;5077462;28;20558;-84
2021/10/03 05:22:29;;;;;;;4.23;2.73;;;19.50;99.90;;;;;;4944616;28;20440;-80
2021/10/03 05:32:28;;;;;;;4.37;3.80;;;19.40;99.90;;;;;;4991458;28;20474;-81
2021/10/03 05:34:55;;;;;;;3.00;2.70;;;19.40;99.90;;;;;;4971318;28;20552;-83
2021/10/03 05:37:23;;;;;;;3.20;2.40;;;19.40;99.90;;;;;;4992774;28;20471;-83
2021/10/03 05:39:50;;;;;;;6.70;3.13;;;19.40;99.90;;;;;;5071229;28;20456;-81
2021/10/03 05:42:17;;;;;;;3.27;2.83;;;19.50;99.90;;;;;;5071468;28;20434;-84
2021/10/03 05:44:46;;;;;;;4.87;3.63;;;19.50;99.90;;;;;;5074945;28;20981;-81
2021/10/03 05:47:13;;;;;;;3.50;2.93;;;19.40;99.90;;;;;;5071554;28;20479;-82
2021/10/03 05:49:40;;;;;;;3.13;2.30;;;19.40;99.90;;;;;;5068598;28;20444;-83
2021/10/03 05:52:08;;;;;;;3.37;3.07;;;19.30;99.90;;;;;;5075015;28;20863;-82
2021/10/03 05:54:35;;;;;;;4.17;3.40;;;19.30;99.90;;;;;;5074412;28;20442;-83
2021/10/03 05:57:02;;;;;;;5.97;3.27;;;19.30;99.90;;;;;;5075743;28;20457;-82
2021/10/03 05:59:29;;;;;;;4.40;2.60;;;19.30;99.90;;;;;;5070417;28;20450;-82
2021/10/03 06:01:58;;;;;;;3.47;2.40;;;19.20;99.90;;;;;;5069413;28;20438;-83
2021/10/03 06:04:25;;;;;;;3.60;3.30;;;19.30;99.90;;;;;;5079165;28;20501;-82
2021/10/03 06:06:52;;;;;;;3.67;3.00;;;19.30;99.90;;;;;;5077697;28;20452;-83
2021/10/03 06:09:19;;;;;;;3.73;2.60;;;19.30;99.90;;;;;;5071978;28;20447;-83
2021/10/03 06:11:46;;;;;;;3.57;3.13;;;19.30;99.90;;;;;;5069849;28;20820;-84
2021/10/03 06:14:13;;;;;;;4.60;3.00;;;19.40;99.90;;;;;;5073867;28;20425;-83
2021/10/03 06:16:42;;;;;;;4.53;3.07;;;19.40;99.90;;;;;;5076051;28;20452;-82
2021/10/03 06:19:11;;;;;;;3.50;2.83;;;19.50;99.90;;;;;;5071117;28;20477;-83
2021/10/03 06:21:39;;;;;;;3.07;2.77;;;19.50;99.90;;;;;;5069174;28;20509;-83
2021/10/03 06:24:07;;;;;;;4.10;3.63;;;19.50;99.90;;;;;;5076880;28;20490;-82
2021/10/03 06:26:35;;;;;;;5.40;3.30;;;19.60;99.90;;;;;;5077523;28;20450;-82
2021/10/03 06:29:03;;;;;;;4.23;3.03;;;19.60;99.90;;;;;;5078913;28;20465;-82
2021/10/03 06:31:30;;;;;;;3.83;3.43;;;19.70;99.90;;;;;;5077395;28;20512;-83
2021/10/03 06:33:57;;;;;;;3.37;3.07;;;19.70;99.90;;;;;;5068530;28;20446;-82
2021/10/03 06:36:26;;;;;;;4.50;3.10;;;19.70;99.90;;;;;;5066795;28;20446;-82
2021/10/03 06:42:28;;;;;;;3.93;2.93;;;19.80;99.90;;;;;;5065358;28;20433;-83
2021/10/03 06:49:02;;;;;;;4.67;3.90;;;19.80;99.90;;;;;;5060934;28;20438;-81
2021/10/03 06:55:22;;;;;;;6.03;3.93;;;19.80;99.90;;;;;;5051561;28;20547;-83
2021/10/03 07:07:55;;;;;;;3.67;3.37;;;20.00;99.90;;;;;;5059291;28;20498;-81
2021/10/03 07:10:24;;;;;;;5.87;4.37;;;20.00;99.90;;;;;;5046648;28;20447;-83
2021/10/03 07:12:57;;;;;;;4.43;3.70;;;20.10;99.90;;;;;;5067213;28;20984;-83
2021/10/03 07:15:30;;;;;;;5.43;4.23;;;20.10;99.90;;;;;;5072376;28;21502;-82
2021/10/03 07:18:03;;;;;;;5.87;4.23;;;20.20;99.90;;;;;;5064813;28;20484;-81
2021/10/03 07:20:36;;;;;;;7.93;5.33;;;20.30;99.90;;;;;;5071684;28;20812;-83
2021/10/03 07:23:17;;;;;;;4.60;4.07;;;20.30;99.90;;;;;;5067158;28;20436;-81
2021/10/03 07:26:14;;;;;;;4.80;4.30;;;20.30;99.90;;;;;;5061017;28;20549;-82
2021/10/03 07:35:11;;;;;;;6.03;4.53;;;20.20;99.90;;;;;;5072694;28;20446;-82
2021/10/03 07:40:56;;;;;;;6.90;4.60;;;20.30;99.90;;;;;;5076494;28;20975;-82
2021/10/03 07:43:33;;;;;;;7.20;4.43;;;20.30;99.90;;;;;;5071412;28;20440;-84
2021/10/03 07:46:00;;;;;;;5.50;4.90;;;20.30;99.90;;;;;;5080504;28;20450;-83
2021/10/03 07:48:27;;;;;;;6.17;4.27;;;20.30;99.90;;;;;;5072901;28;20542;-83
2021/10/03 07:51:10;;;;;;;5.40;4.90;;;20.30;99.90;;;;;;5073102;28;20454;-83
2021/10/03 07:53:39;;;;;;;5.80;4.83;;;20.30;99.90;;;;;;5071404;28;20447;-81
2021/10/03 07:56:44;;;;;;;7.77;4.60;;;20.30;99.90;;;;;;5078239;28;20439;-82
2021/10/03 07:59:33;;;;;;;7.00;4.90;;;20.30;99.90;;;;;;5068595;28;20458;-82
2021/10/03 08:02:00;;;;;;;6.97;6.20;;;20.30;99.90;;;;;;5073086;28;20438;-81
2021/10/03 08:04:36;;;;;;;5.80;4.10;;;20.30;99.90;;;;;;5070966;28;20463;-83
2021/10/03 08:10:13;;;;;;;7.07;4.90;;;20.30;99.90;;;;;;5027295;28;20459;-84
2021/10/03 08:12:53;;;;;;;8.50;5.70;;;20.40;99.90;;;;;;5076942;28;20473;-82
2021/10/03 08:15:30;;;;;;;8.90;5.03;;;20.40;99.90;;;;;;5072589;28;20935;-81
2021/10/03 08:18:01;;;;;;;5.60;4.97;;;20.40;99.90;;;;;;5076830;28;20464;-83
2021/10/03 08:20:48;;;;;;;4.20;3.80;;;20.30;99.90;;;;;;5082688;28;20504;-81
2021/10/03 08:23:16;;;;;;;5.77;5.03;;;20.30;99.90;;;;;;5080822;28;20450;-82
2021/10/03 08:25:43;;;;;;;5.83;4.70;;;20.30;99.90;;;;;;5076746;28;20460;-83
2021/10/03 08:28:16;;;;;;;8.07;5.33;;;20.30;99.90;;;;;;5064575;28;20467;-82
2021/10/03 08:30:45;;;;;;;8.60;4.43;;;20.20;99.90;;;;;;5066098;28;20461;-84
2021/10/03 08:33:15;;;;;;;8.27;6.27;;;20.20;99.90;;;;;;5068269;28;21008;-84
2021/10/03 08:35:42;;;;;;;5.67;5.07;;;20.20;99.90;;;;;;5067349;28;20442;-84
2021/10/03 08:38:18;;;;;;;6.13;5.53;;;20.20;99.90;;;;;;5071962;28;20457;-83
2021/10/03 08:40:47;;;;;;;6.03;4.57;;;20.10;99.90;;;;;;5059763;28;20536;-81
2021/10/03 08:43:18;;;;;;;5.27;4.77;;;20.10;99.90;;;;;;5069679;28;20437;-82
2021/10/03 08:45:47;;;;;;;6.70;5.30;;;20.00;99.90;;;;;;5063255;28;20468;-83
2021/10/03 08:48:23;;;;;;;7.50;5.27;;;20.00;99.90;;;;;;5068328;28;20449;-83
2021/10/03 08:50:51;;;;;;;8.50;6.00;;;20.00;99.90;;;;;;5070782;28;20532;-84
2021/10/03 08:53:19;;;;;;;6.23;5.63;;;19.90;99.90;;;;;;5073801;28;20492;-83
2021/10/03 08:55:46;;;;;;;6.77;5.30;;;19.90;99.90;;;;;;5063583;28;20445;-83
2021/10/03 08:58:13;;;;;;;5.63;5.13;;;19.90;99.90;;;;;;5067427;28;20459;-84
2021/10/03 09:00:59;;;;;;;6.77;5.13;;;19.90;99.90;;;;;;5072898;28;20457;-84
2021/10/03 09:03:26;;;;;;;5.80;4.90;;;19.90;99.90;;;;;;5059892;28;20521;-83
2021/10/03 09:05:55;;;;;;;5.47;4.97;;;20.00;99.90;;;;;;5062277;28;20461;-83
2021/10/03 09:08:23;;;;;;;6.63;5.40;;;20.00;99.90;;;;;;5067956;28;20489;-83
2021/10/03 09:10:59;;;;;;;6.00;4.80;;;20.20;99.90;;;;;;5066188;28;20450;-82
2021/10/03 09:13:42;;;;;;;5.67;4.70;;;20.20;99.90;;;;;;5074886;28;20486;-82
2021/10/03 09:16:14;;;;;;;5.93;5.23;;;20.30;99.90;;;;;;5075255;28;20446;-83
2021/10/03 09:18:44;;;;;;;7.87;5.20;;;20.20;99.90;;;;;;5067326;28;20470;-83
2021/10/03 09:21:15;;;;;;;7.50;5.70;;;20.30;99.90;;;;;;5077059;28;20447;-83
2021/10/03 09:23:42;;;;;;;9.57;5.00;;;20.30;99.90;;;;;;5072290;28;20463;-83
2021/10/03 09:26:14;;;;;;;5.40;4.83;;;20.40;99.90;;;;;;5071451;28;20452;-82
2021/10/03 09:28:41;;;;;;;5.40;4.87;;;20.30;99.90;;;;;;5070418;28;20593;-83
2021/10/03 09:31:14;;;;;;;6.67;5.57;;;20.30;99.90;;;;;;5063033;28;20476;-83
2021/10/03 09:34:01;;;;;;;5.00;4.60;;;20.30;99.90;;;;;;5070555;28;20485;-83
2021/10/03 09:36:31;;;;;;;9.30;5.00;;;20.40;99.90;;;;;;5065516;28;20471;-82
2021/10/03 09:39:00;;;;;;;6.20;5.10;;;20.60;99.90;;;;;;5069563;28;20511;-83
2021/10/03 09:41:29;;;;;;;7.73;5.50;;;20.70;99.90;;;;;;5073930;28;20642;-83
2021/10/03 09:43:58;;;;;;;5.90;5.03;;;20.80;99.90;;;;;;5065848;28;20445;-81
2021/10/03 09:46:39;;;;;;;5.40;4.90;;;20.80;99.90;;;;;;5076412;28;20516;-82
2021/10/03 09:49:07;;;;;;;6.20;4.97;;;20.80;99.90;;;;;;5086996;28;20552;-82
2021/10/03 09:51:35;;;;;;;7.23;4.77;;;20.80;99.90;;;;;;5076917;28;20452;-80
2021/10/03 09:54:03;;;;;;;4.83;4.33;;;20.60;99.90;;;;;;5076617;28;20448;-82
2021/10/03 09:56:32;;;;;;;6.67;4.80;;;20.60;99.90;;;;;;5084502;28;20504;-82
2021/10/03 09:59:08;;;;;;;6.90;5.27;;;20.50;99.90;;;;;;5076771;28;20457;-82
2021/10/03 10:01:44;;;;;;;5.70;4.60;;;20.40;99.90;;;;;;5082758;28;20481;-82
2021/10/03 10:04:15;;;;;;;5.77;4.83;;;20.30;99.90;;;;;;5070583;28;20447;-83
2021/10/03 10:06:44;;;;;;;5.80;5.03;;;20.40;99.90;;;;;;5064623;28;20457;-83
2021/10/03 10:09:14;;;;;;;7.40;4.57;;;20.40;99.90;;;;;;5069850;28;20463;-83
2021/10/03 10:11:46;;;;;;;5.43;4.27;;;20.40;99.90;;;;;;5061626;28;20506;-83
2021/10/03 10:14:13;;;;;;;5.80;4.57;;;20.50;99.90;;;;;;5074963;28;20518;-83
2021/10/03 10:16:52;;;;;;;6.07;5.00;;;20.50;99.90;;;;;;5069265;28;20458;-84
2021/10/03 10:19:38;;;;;;;4.77;4.33;;;20.50;99.90;;;;;;5068924;28;20448;-84
2021/10/03 10:22:36;;;;;;;6.53;5.27;;;20.50;99.90;;;;;;5077499;28;20443;-82
2021/10/03 10:25:18;;;;;;;8.97;5.00;;;20.50;99.90;;;;;;5077081;28;20435;-82
2021/10/03 10:28:07;;;;;;;5.47;4.97;;;20.50;99.90;;;;;;5076870;28;20468;-81
2021/10/03 10:30:38;;;;;;;5.23;4.40;;;20.40;99.90;;;;;;5071707;28;20445;-82
2021/10/03 10:33:16;;;;;;;5.90;4.50;;;20.40;99.90;;;;;;5073217;28;20488;-83
2021/10/03 10:35:45;;;;;;;8.73;5.67;;;20.40;99.90;;;;;;5080675;28;20449;-83
2021/10/03 10:38:20;;;;;;;8.23;4.93;;;20.50;99.90;;;;;;5070048;28;20489;-83
2021/10/03 10:40:49;;;;;;;5.30;4.47;;;20.70;99.90;;;;;;5071336;28;20428;-82
2021/10/03 10:43:47;;;;;;;6.00;5.07;;;20.70;99.90;;;;;;5064418;28;20956;-83
2021/10/03 10:46:50;;;;;;;7.67;4.83;;;20.70;99.90;;;;;;5073524;28;20473;-83
2021/10/03 10:49:38;;;;;;;7.37;4.47;;;20.70;99.90;;;;;;5074316;28;20444;-82
2021/10/03 10:55:26;;;;;;;5.27;4.70;;;20.90;99.90;;;;;;5083532;28;20417;-82
2021/10/03 10:58:15;;;;;;;6.83;4.10;;;21.00;99.90;;;;;;5080867;28;20455;-81
2021/10/03 11:01:05;;;;;;;6.03;4.40;;;20.90;99.90;;;;;;5086116;28;20453;-82
2021/10/03 11:04:04;;;;;;;4.40;4.00;;;20.80;99.90;;;;;;5080038;28;20432;-82
2021/10/03 11:06:57;;;;;;;8.90;4.30;;;20.70;99.90;;;;;;5079053;28;20437;-80
2021/10/03 11:09:25;;;;;;;5.27;4.77;;;20.80;99.90;;;;;;5051845;28;20553;-81
2021/10/03 11:12:08;;;;;;;7.03;4.60;;;20.90;99.90;;;;;;5081087;28;20455;-81
2021/10/03 11:14:37;;;;;;;4.90;4.33;;;20.90;99.90;;;;;;5081982;28;20442;-81
2021/10/03 11:17:07;;;;;;;5.33;4.33;;;21.00;99.90;;;;;;5082817;28;20425;-82
2021/10/03 11:19:37;;;;;;;5.37;4.40;;;21.20;99.90;;;;;;5090689;28;20513;-81
2021/10/03 11:22:08;;;;;;;6.33;4.27;;;21.30;99.90;;;;;;5070434;28;20439;-84
2021/10/03 11:24:38;;;;;;;6.80;4.17;;;21.30;99.90;;;;;;5075610;28;20819;-84
2021/10/03 11:27:07;;;;;;;4.70;4.30;;;21.40;99.90;;;;;;5069953;28;20465;-83
2021/10/03 11:29:36;;;;;;;5.73;4.80;;;21.50;99.90;;;;;;5074376;28;20457;-83
2021/10/03 11:32:05;;;;;;;4.70;4.17;;;21.50;99.90;;;;;;5073136;28;20456;-83
2021/10/03 11:34:35;;;;;;;5.80;4.67;;;21.30;99.90;;;;;;5074124;28;20993;-84
2021/10/03 11:37:06;;;;;;;6.30;5.70;;;21.30;99.90;;;;;;5070191;28;20449;-84
2021/10/03 11:39:47;;;;;;;5.03;4.07;;;21.10;99.90;;;;;;5075062;28;20443;-83
2021/10/03 11:42:27;;;;;;;5.63;5.13;;;20.90;99.90;;;;;;5066513;28;20929;-84
2021/10/03 11:45:00;;;;;;;5.27;4.23;;;20.90;99.90;;;;;;5062002;28;20449;-83
2021/10/03 11:47:27;;;;;;;6.80;5.10;;;20.90;99.90;;;;;;5066013;28;20467;-83
2021/10/03 11:50:00;;;;;;;5.60;4.33;;;21.00;99.90;;;;;;5065244;28;20446;-84
2021/10/03 11:52:32;;;;;;;7.30;4.50;;;21.00;99.90;;;;;;5067808;28;20498;-84
2021/10/03 11:55:06;;;;;;;4.27;3.87;;;21.00;99.90;;;;;;5080173;28;20461;-83
2021/10/03 11:57:45;;;;;;;5.07;4.57;;;21.20;99.90;;;;;;5075227;28;20464;-83
2021/10/03 12:00:15;;;;;;;5.30;3.87;;;21.30;99.90;;;;;;5071175;28;20456;-84
2021/10/03 12:02:46;;;;;;;7.10;4.30;;;21.50;99.90;;;;;;5075084;28;20429;-84
2021/10/03 12:05:31;;;;;;;4.47;4.07;;;21.50;99.90;;;;;;5064289;28;20453;-84
2021/10/03 12:08:07;;;;;;;6.90;4.70;;;21.60;99.90;;;;;;5069086;28;20997;-84
2021/10/03 12:10:43;;;;;;;4.40;3.97;;;21.60;99.90;;;;;;5075132;28;20768;-82
2021/10/03 12:13:22;;;;;;;4.37;3.97;;;21.40;99.90;;;;;;5071621;28;20476;-82
2021/10/03 12:15:54;;;;;;;7.50;4.50;;;21.50;99.90;;;;;;5069124;28;20457;-82
2021/10/03 12:18:43;;;;;;;5.57;4.80;;;21.50;99.90;;;;;;5052761;28;20484;-84
2021/10/03 12:21:19;;;;;;;4.87;4.10;;;21.70;99.90;;;;;;5071165;28;20449;-82
2021/10/03 12:23:53;;;;;;;5.53;3.63;;;21.80;99.90;;;;;;5072495;28;20440;-84
2021/10/03 12:26:36;;;;;;;4.30;3.53;;;21.80;99.90;;;;;;5067056;28;20468;-83
2021/10/03 12:29:18;;;;;;;4.63;4.20;;;21.90;99.90;;;;;;5072953;28;20981;-84
2021/10/03 12:31:48;;;;;;;5.53;4.00;;;21.90;99.90;;;;;;5068297;28;20526;-83
2021/10/03 12:34:34;;;;;;;5.30;4.00;;;21.80;99.90;;;;;;5064790;28;20516;-83
2021/10/03 12:37:04;;;;;;;5.80;5.00;;;21.80;99.90;;;;;;5074581;28;20452;-83
2021/10/03 12:39:40;;;;;;;11.20;4.03;;;21.80;99.90;;;;;;5080897;28;20476;-83
2021/10/03 12:42:11;;;;;;;4.20;3.77;;;21.80;99.90;;;;;;5074932;28;20460;-84
2021/10/03 12:50:51;;;;;;;4.97;4.47;;;21.60;99.90;;;;;;4986825;28;20452;-83
2021/10/03 12:59:56;;;;;;;6.50;4.50;;;21.70;99.90;;;;;;5060560;28;20443;-83
2021/10/03 13:02:29;;;;;;;4.17;3.77;;;21.60;99.90;;;;;;5075719;28;20512;-83
2021/10/03 13:05:38;;;;;;;4.37;3.73;;;21.80;99.90;;;;;;5078334;28;20452;-83
2021/10/03 13:08:10;;;;;;;6.70;4.40;;;21.90;99.90;;;;;;5046719;28;20495;-84
2021/10/03 13:10:37;;;;;;;4.20;3.80;;;21.90;99.90;;;;;;5077986;28;20501;-83
2021/10/03 13:13:04;;;;;;;6.67;3.60;;;21.90;99.90;;;;;;5064093;28;20484;-83
2021/10/03 13:15:34;;;;;;;4.23;3.30;;;21.80;99.90;;;;;;5075772;28;20469;-82
2021/10/03 13:18:01;;;;;;;4.50;3.63;;;21.90;99.90;;;;;;5064104;28;20470;-83
2021/10/03 13:20:28;;;;;;;6.20;3.70;;;21.90;99.90;;;;;;5069959;28;20453;-83
2021/10/03 13:22:56;;;;;;;4.83;4.17;;;21.80;99.90;;;;;;5065064;28;20450;-84
2021/10/03 13:25:23;;;;;;;4.20;3.67;;;21.80;99.90;;;;;;5069378;28;20865;-84
2021/10/03 13:27:50;;;;;;;5.73;3.70;;;21.70;99.90;;;;;;5074213;28;20570;-84
2021/10/03 13:30:17;;;;;;;5.20;3.67;;;21.70;99.90;;;;;;5071530;28;20452;-84
2021/10/03 13:32:46;;;;;;;4.83;3.60;;;21.70;99.90;;;;;;5076422;28;20454;-84
2021/10/03 13:35:13;;;;;;;5.30;4.13;;;21.70;99.90;;;;;;5057635;28;20445;-86
2021/10/03 13:37:41;;;;;;;5.47;4.97;;;21.60;99.90;;;;;;5062325;28;20489;-83
2021/10/03 13:40:10;;;;;;;5.40;4.03;;;21.50;99.90;;;;;;5082682;28;20455;-83
2021/10/03 13:42:37;;;;;;;4.00;3.60;;;21.50;99.90;;;;;;5078732;28;20543;-83
2021/10/03 13:45:07;;;;;;;4.63;3.90;;;21.40;99.90;;;;;;5083344;28;20445;-84
2021/10/03 13:47:34;;;;;;;4.50;3.93;;;21.40;99.90;;;;;;5081409;28;20523;-82
2021/10/03 13:50:03;;;;;;;5.57;4.13;;;21.50;99.90;;;;;;5078583;28;21040;-82
2021/10/03 13:52:31;;;;;;;4.70;4.00;;;21.40;99.90;;;;;;5085591;28;20475;-80
2021/10/03 13:54:58;;;;;;;5.30;3.63;;;21.40;99.90;;;;;;5081919;28;20484;-82
2021/10/03 13:57:25;;;;;;;4.07;3.77;;;21.40;99.90;;;;;;5091317;28;20471;-81
2021/10/03 13:59:52;;;;;;;4.73;3.97;;;21.50;99.90;;;;;;5082855;28;20548;-81
2021/10/03 14:02:19;;;;;;;3.77;3.17;;;21.50;99.90;;;;;;5087129;28;20862;-81
2021/10/03 14:04:47;;;;;;;4.20;3.80;;;21.50;99.90;;;;;;5086909;28;20501;-81
2021/10/03 14:07:15;;;;;;;3.93;3.37;;;21.50;99.90;;;;;;5067556;28;20480;-83
2021/10/03 14:09:42;;;;;;;3.50;3.20;;;21.50;99.90;;;;;;5079098;28;20420;-82
2021/10/03 14:12:10;;;;;;;6.80;4.03;;;21.50;99.90;;;;;;5073286;28;20518;-83
2021/10/03 14:14:37;;;;;;;4.40;3.70;;;21.50;99.90;;;;;;5081597;28;20485;-83
2021/10/03 14:17:05;;;;;;;4.13;3.77;;;21.50;99.90;;;;;;5076565;28;20447;-83
2021/10/03 14:19:32;;;;;;;5.57;4.37;;;21.60;99.90;;;;;;5079138;28;20448;-82
2021/10/03 14:22:01;;;;;;;4.30;3.43;;;21.60;99.90;;;;;;5080753;28;20465;-82
2021/10/03 14:24:31;;;;;;;7.13;4.00;;;21.70;99.90;;;;;;5095033;28;20421;-81
2021/10/03 14:26:58;;;;;;;6.73;3.90;;;21.60;99.90;;;;;;5091897;28;20529;-82